createdAt,value
2022-08-24T00:00:47.693Z,52.61
2022-08-24T00:01:51.237Z,53.19
2022-08-24T00:02:53.983Z,53.27
2022-08-24T00:03:57.364Z,52.61
2022-08-24T00:05:00.113Z,52.54
2022-08-24T00:06:04.004Z,53.14
2022-08-24T00:07:07.135Z,52.99
2022-08-24T00:08:10.840Z,52.75
2022-08-24T00:09:13.598Z,52.55
2022-08-24T00:10:17.547Z,53.45
2022-08-24T00:11:21.236Z,53.00
2022-08-24T00:12:24.317Z,52.47
2022-08-24T00:13:29.444Z,52.43
2022-08-24T00:14:32.986Z,53.26
2022-08-24T00:15:35.313Z,52.47
2022-08-24T00:16:37.663Z,53.02
2022-08-24T00:17:40.224Z,53.00
2022-08-24T00:18:42.899Z,52.29
2022-08-24T00:19:45.051Z,52.70
2022-08-24T00:20:47.427Z,52.58
2022-08-24T00:21:49.823Z,52.73
2022-08-24T00:22:52.750Z,52.75
2022-08-24T00:23:54.885Z,51.70
2022-08-24T00:24:56.978Z,51.70
2022-08-24T00:25:59.620Z,53.18
2022-08-24T00:27:02.511Z,51.88
2022-08-24T00:28:05.402Z,52.67
2022-08-24T00:29:08.706Z,51.43
2022-08-24T00:30:14.972Z,52.38
2022-08-24T00:31:17.189Z,53.01
2022-08-24T00:32:19.647Z,52.40
2022-08-24T00:33:22.848Z,52.00
2022-08-24T00:34:25.296Z,51.77
2022-08-24T00:35:28.456Z,52.28
2022-08-24T00:36:30.733Z,52.59
2022-08-24T00:37:35.099Z,53.43
2022-08-24T00:38:38.747Z,52.21
2022-08-24T00:39:41.861Z,51.75
2022-08-24T00:40:47.349Z,51.65
2022-08-24T00:41:51.284Z,51.55
2022-08-24T00:42:55.999Z,52.54
2022-08-24T00:44:01.345Z,52.57
2022-08-24T00:45:06.073Z,52.49
2022-08-24T00:46:15.076Z,51.99
2022-08-24T00:47:26.727Z,52.47
2022-08-24T00:48:31.936Z,52.17
2022-08-24T00:49:40.773Z,52.70
2022-08-24T00:50:48.231Z,52.10
2022-08-24T00:51:58.073Z,51.88
2022-08-24T00:53:03.917Z,52.13
2022-08-24T00:54:09.640Z,51.88
2022-08-24T00:55:15.708Z,52.38
2022-08-24T00:56:30.780Z,51.94
2022-08-24T00:57:36.421Z,51.71
2022-08-24T00:58:42.451Z,53.01
2022-08-24T00:59:49.015Z,53.18
2022-08-24T01:00:54.851Z,54.15
2022-08-24T01:01:59.153Z,52.71
2022-08-24T01:03:05.042Z,53.03
2022-08-24T01:04:10.867Z,52.94
2022-08-24T01:05:14.029Z,53.07
2022-08-24T01:06:16.703Z,53.14
2022-08-24T01:07:19.967Z,53.46
2022-08-24T01:08:22.551Z,52.86
2022-08-24T01:09:25.217Z,53.50
2022-08-24T01:10:31.783Z,52.97
2022-08-24T01:11:34.786Z,52.59
2022-08-24T01:12:40.608Z,52.89
2022-08-24T01:13:46.330Z,53.15
2022-08-24T01:14:48.917Z,53.34
2022-08-24T01:15:54.315Z,53.62
2022-08-24T01:16:56.878Z,53.65
2022-08-24T01:18:00.602Z,53.65
2022-08-24T01:19:05.634Z,53.65
2022-08-24T01:20:10.241Z,54.07
2022-08-24T01:21:38.438Z,54.37
2022-08-24T01:22:53.497Z,53.48
2022-08-24T01:24:02.392Z,53.95
2022-08-24T01:25:06.157Z,53.69
2022-08-24T01:26:13.500Z,53.73
2022-08-24T01:27:19.981Z,53.37
2022-08-24T01:28:27.161Z,53.34
2022-08-24T01:29:29.862Z,53.26
2022-08-24T01:30:36.751Z,53.12
2022-08-24T01:31:38.521Z,52.86
2022-08-24T01:32:58.402Z,53.23
2022-08-24T01:34:00.504Z,53.36
2022-08-24T01:35:04.464Z,53.07
2022-08-24T01:36:16.126Z,53.01
2022-08-24T01:37:18.758Z,53.11
2022-08-24T01:38:21.405Z,53.13
2022-08-24T01:39:27.168Z,52.82
2022-08-24T01:40:34.644Z,53.46
2022-08-24T01:41:37.210Z,53.38
2022-08-24T01:42:39.596Z,53.06
2022-08-24T01:43:41.832Z,53.36
2022-08-24T01:44:45.711Z,53.40
2022-08-24T01:45:49.178Z,53.79
2022-08-24T01:46:53.940Z,53.22
2022-08-24T01:47:56.619Z,52.93
2022-08-24T01:48:59.695Z,53.54
2022-08-24T01:50:02.174Z,53.07
2022-08-24T01:51:04.519Z,53.48
2022-08-24T01:52:08.369Z,53.30
2022-08-24T01:53:10.702Z,52.85
2022-08-24T01:54:14.181Z,53.08
2022-08-24T01:55:19.233Z,53.25
2022-08-24T01:56:24.571Z,53.53
2022-08-24T01:57:27.590Z,53.39
2022-08-24T01:58:32.216Z,54.27
2022-08-24T01:59:35.156Z,53.58
2022-08-24T02:00:38.436Z,53.53
2022-08-24T02:01:44.152Z,53.31
2022-08-24T02:02:47.399Z,53.58
2022-08-24T02:03:51.942Z,53.67
2022-08-24T02:04:54.092Z,53.47
2022-08-24T02:05:57.140Z,53.17
2022-08-24T02:07:00.462Z,53.44
2022-08-24T02:08:04.323Z,53.24
2022-08-24T02:09:07.096Z,53.58
2022-08-24T02:10:13.132Z,54.30
2022-08-24T02:11:15.945Z,53.59
2022-08-24T02:12:19.747Z,53.43
2022-08-24T02:13:22.084Z,53.69
2022-08-24T02:14:25.261Z,53.42
2022-08-24T02:15:36.075Z,53.45
2022-08-24T02:16:38.888Z,53.82
2022-08-24T02:17:41.175Z,53.97
2022-08-24T02:18:43.324Z,53.33
2022-08-24T02:19:47.121Z,53.62
2022-08-24T02:20:49.363Z,54.01
2022-08-24T02:21:51.495Z,53.91
2022-08-24T02:22:55.258Z,54.80
2022-08-24T02:23:57.455Z,55.45
2022-08-24T02:25:00.267Z,53.71
2022-08-24T02:26:04.082Z,53.73
2022-08-24T02:27:06.471Z,54.10
2022-08-24T02:28:09.217Z,54.00
2022-08-24T02:29:11.900Z,54.45
2022-08-24T02:30:15.113Z,54.23
2022-08-24T02:31:17.618Z,54.27
2022-08-24T02:32:20.015Z,54.02
2022-08-24T02:33:22.644Z,54.26
2022-08-24T02:34:26.414Z,54.15
2022-08-24T02:35:29.703Z,55.18
2022-08-24T02:36:33.437Z,54.55
2022-08-24T02:37:35.958Z,53.93
2022-08-24T02:38:41.683Z,54.11
2022-08-24T02:39:45.763Z,54.36
2022-08-24T02:40:50.520Z,54.41
2022-08-24T02:41:54.225Z,54.32
2022-08-24T02:42:57.650Z,54.57
2022-08-24T02:44:00.509Z,54.54
2022-08-24T02:45:05.193Z,54.70
2022-08-24T02:46:09.269Z,55.07
2022-08-24T02:47:13.704Z,54.41
2022-08-24T02:48:16.062Z,54.02
2022-08-24T02:49:18.351Z,54.22
2022-08-24T02:50:21.606Z,54.63
2022-08-24T02:51:29.745Z,54.84
2022-08-24T02:52:33.849Z,54.61
2022-08-24T02:53:36.121Z,54.60
2022-08-24T02:54:38.205Z,54.29
2022-08-24T02:55:41.670Z,54.51
2022-08-24T02:56:45.136Z,54.60
2022-08-24T02:57:48.170Z,55.09
2022-08-24T02:58:50.410Z,55.06
2022-08-24T02:59:54.433Z,54.71
2022-08-24T03:00:56.900Z,54.71
2022-08-24T03:02:00.741Z,54.94
2022-08-24T03:03:03.369Z,54.30
2022-08-24T03:04:06.133Z,54.72
2022-08-24T03:05:08.840Z,54.43
2022-08-24T03:06:12.857Z,54.55
2022-08-24T03:07:15.714Z,54.32
2022-08-24T03:08:17.937Z,54.45
2022-08-24T03:09:20.519Z,53.58
2022-08-24T03:10:27.511Z,53.58
2022-08-24T03:11:30.296Z,54.48
2022-08-24T03:12:33.844Z,54.05
2022-08-24T03:13:36.914Z,53.75
2022-08-24T03:14:39.584Z,54.67
2022-08-24T03:15:41.772Z,53.85
2022-08-24T03:16:44.651Z,53.73
2022-08-24T03:17:46.958Z,53.71
2022-08-24T03:18:49.673Z,53.71
2022-08-24T03:19:52.050Z,53.63
2022-08-24T03:20:55.907Z,53.47
2022-08-24T03:21:58.592Z,53.67
2022-08-24T03:23:01.636Z,54.38
2022-08-24T03:24:04.752Z,54.54
2022-08-24T03:25:08.950Z,53.43
2022-08-24T03:26:12.292Z,53.49
2022-08-24T03:27:14.904Z,53.87
2022-08-24T03:28:18.696Z,53.66
2022-08-24T03:29:24.085Z,53.39
2022-08-24T03:30:28.331Z,53.65
2022-08-24T03:31:31.417Z,53.48
2022-08-24T03:32:33.902Z,53.61
2022-08-24T03:33:36.187Z,54.11
2022-08-24T03:34:38.369Z,53.35
2022-08-24T03:35:40.591Z,52.88
2022-08-24T03:36:43.836Z,52.99
2022-08-24T03:37:46.092Z,52.64
2022-08-24T03:38:50.026Z,52.21
2022-08-24T03:39:53.225Z,52.74
2022-08-24T03:40:56.058Z,53.25
2022-08-24T03:41:58.801Z,52.70
2022-08-24T03:43:03.240Z,52.05
2022-08-24T03:44:06.854Z,52.82
2022-08-24T03:45:10.054Z,52.99
2022-08-24T03:46:19.402Z,53.33
2022-08-24T03:47:22.912Z,53.13
2022-08-24T03:48:25.484Z,52.56
2022-08-24T03:49:27.753Z,52.75
2022-08-24T03:50:31.025Z,52.72
2022-08-24T03:51:33.134Z,52.58
2022-08-24T03:52:35.296Z,51.93
2022-08-24T03:53:38.115Z,52.06
2022-08-24T03:54:42.328Z,52.61
2022-08-24T03:55:44.579Z,52.01
2022-08-24T03:56:47.036Z,51.96
2022-08-24T03:57:49.192Z,52.04
2022-08-24T03:58:52.837Z,52.16
2022-08-24T03:59:55.983Z,52.04
2022-08-24T04:00:59.486Z,52.65
2022-08-24T04:02:02.207Z,52.54
2022-08-24T04:03:04.637Z,52.60
2022-08-24T04:04:07.057Z,52.33
2022-08-24T04:05:11.334Z,52.80
2022-08-24T04:06:17.156Z,52.38
2022-08-24T04:07:19.570Z,52.01
2022-08-24T04:08:21.756Z,52.17
2022-08-24T04:09:24.714Z,52.44
2022-08-24T04:10:27.683Z,52.45
2022-08-24T04:11:30.347Z,52.19
2022-08-24T04:12:32.540Z,52.48
2022-08-24T04:13:35.090Z,52.74
2022-08-24T04:14:37.842Z,52.31
2022-08-24T04:15:42.702Z,52.31
2022-08-24T04:16:45.802Z,51.79
2022-08-24T04:17:51.673Z,52.63
2022-08-24T04:18:54.137Z,52.22
2022-08-24T04:19:56.409Z,51.78
2022-08-24T04:21:00.316Z,52.00
2022-08-24T04:22:04.040Z,52.15
2022-08-24T04:23:07.580Z,52.01
2022-08-24T04:24:11.806Z,51.99
2022-08-24T04:25:14.077Z,52.25
2022-08-24T04:26:26.868Z,52.23
2022-08-24T04:27:25.656Z,52.00
2022-08-24T04:28:28.068Z,51.51
2022-08-24T04:29:30.784Z,51.97
2022-08-24T04:30:33.353Z,51.77
2022-08-24T04:31:44.556Z,51.69
2022-08-24T04:32:47.395Z,51.60
2022-08-24T04:33:53.956Z,52.25
2022-08-24T04:34:55.352Z,52.21
2022-08-24T04:35:58.202Z,51.50
2022-08-24T04:37:02.897Z,51.96
2022-08-24T04:38:06.635Z,51.87
2022-08-24T04:39:09.183Z,51.33
2022-08-24T04:40:32.011Z,52.46
2022-08-24T04:41:35.509Z,52.21
2022-08-24T04:42:38.141Z,51.77
2022-08-24T04:43:41.804Z,51.99
2022-08-24T04:44:44.081Z,51.76
2022-08-24T04:45:47.822Z,52.00
2022-08-24T04:46:50.555Z,52.16
2022-08-24T04:47:52.814Z,51.95
2022-08-24T04:48:56.609Z,52.12
2022-08-24T04:49:58.880Z,52.06
2022-08-24T04:51:04.469Z,51.45
2022-08-24T04:52:06.986Z,51.46
2022-08-24T04:53:11.833Z,51.67
2022-08-24T04:54:14.774Z,51.72
2022-08-24T04:55:18.455Z,51.55
2022-08-24T04:56:23.691Z,51.90
2022-08-24T04:57:27.635Z,51.75
2022-08-24T04:58:30.971Z,51.70
2022-08-24T04:59:33.740Z,52.04
2022-08-24T05:00:38.604Z,52.06
2022-08-24T05:01:42.514Z,52.21
2022-08-24T05:02:46.128Z,51.69
2022-08-24T05:03:51.599Z,52.10
2022-08-24T05:04:56.621Z,52.42
2022-08-24T05:05:58.710Z,51.90
2022-08-24T05:07:01.953Z,52.75
2022-08-24T05:08:04.720Z,52.75
2022-08-24T05:09:08.532Z,51.85
2022-08-24T05:10:11.756Z,52.12
2022-08-24T05:11:15.906Z,51.85
2022-08-24T05:12:18.432Z,52.08
2022-08-24T05:13:22.387Z,52.24
2022-08-24T05:14:28.425Z,52.07
2022-08-24T05:15:29.137Z,52.18
2022-08-24T05:16:31.747Z,51.98
2022-08-24T05:17:34.080Z,51.66
2022-08-24T05:18:36.768Z,52.24
2022-08-24T05:19:38.845Z,51.97
2022-08-24T05:20:42.991Z,51.70
2022-08-24T05:21:45.108Z,51.58
2022-08-24T05:22:47.660Z,50.99
2022-08-24T05:23:50.186Z,51.68
2022-08-24T05:24:52.653Z,51.74
2022-08-24T05:26:04.887Z,51.52
2022-08-24T05:27:07.213Z,51.04
2022-08-24T05:28:10.081Z,50.95
2022-08-24T05:29:13.434Z,50.27
2022-08-24T05:30:18.083Z,50.66
2022-08-24T05:31:22.909Z,50.98
2022-08-24T05:32:25.361Z,50.32
2022-08-24T05:33:28.450Z,50.44
2022-08-24T05:34:31.210Z,51.81
2022-08-24T05:35:39.089Z,50.29
2022-08-24T05:36:43.855Z,50.33
2022-08-24T05:37:53.976Z,51.10
2022-08-24T05:38:59.305Z,50.40
2022-08-24T05:40:07.735Z,51.00
2022-08-24T05:41:11.376Z,50.39
2022-08-24T05:42:14.431Z,49.96
2022-08-24T05:43:18.909Z,50.15
2022-08-24T05:44:21.258Z,50.21
2022-08-24T05:45:23.755Z,50.04
2022-08-24T05:46:26.947Z,49.85
2022-08-24T05:47:29.650Z,50.25
2022-08-24T05:48:34.495Z,49.74
2022-08-24T05:49:43.816Z,51.01
2022-08-24T05:50:52.219Z,50.30
2022-08-24T05:51:54.556Z,49.78
2022-08-24T05:52:57.266Z,49.90
2022-08-24T05:53:59.818Z,49.74
2022-08-24T05:55:05.472Z,49.31
2022-08-24T05:56:11.086Z,49.88
2022-08-24T05:57:13.301Z,48.94
2022-08-24T05:58:23.180Z,49.27
2022-08-24T05:59:23.776Z,49.47
2022-08-24T06:00:27.976Z,50.20
2022-08-24T06:01:30.520Z,49.83
2022-08-24T06:02:33.306Z,48.75
2022-08-24T06:03:36.904Z,48.59
2022-08-24T06:04:40.062Z,48.15
2022-08-24T06:05:44.762Z,48.21
2022-08-24T06:06:48.686Z,48.69
2022-08-24T06:07:52.046Z,48.53
2022-08-24T06:08:57.366Z,48.61
2022-08-24T06:10:14.587Z,48.35
2022-08-24T06:11:05.884Z,49.96
2022-08-24T06:12:10.471Z,49.05
2022-08-24T06:13:14.691Z,49.74
2022-08-24T06:14:18.483Z,49.12
2022-08-24T06:15:23.619Z,48.56
2022-08-24T06:16:26.755Z,48.98
2022-08-24T06:17:29.325Z,46.40
2022-08-24T06:18:33.008Z,47.10
2022-08-24T06:19:37.370Z,46.11
2022-08-24T06:20:41.880Z,47.08
2022-08-24T06:21:48.036Z,48.07
2022-08-24T06:22:50.401Z,45.90
2022-08-24T06:23:53.454Z,46.25
2022-08-24T06:24:55.651Z,45.20
2022-08-24T06:25:58.810Z,45.37
2022-08-24T06:27:01.825Z,46.76
2022-08-24T06:28:05.483Z,47.17
2022-08-24T06:29:09.477Z,46.73
2022-08-24T06:30:15.345Z,45.78
2022-08-24T06:31:18.655Z,45.17
2022-08-24T06:32:23.536Z,44.70
2022-08-24T06:33:25.855Z,44.54
2022-08-24T06:34:29.576Z,44.81
2022-08-24T06:35:32.552Z,45.45
2022-08-24T06:36:36.155Z,45.66
2022-08-24T06:37:39.069Z,46.28
2022-08-24T06:38:42.299Z,45.76
2022-08-24T06:39:46.521Z,45.76
2022-08-24T06:40:49.189Z,45.29
2022-08-24T06:41:51.450Z,45.17
2022-08-24T06:42:55.507Z,45.46
2022-08-24T06:43:59.655Z,44.82
2022-08-24T06:45:04.427Z,45.72
2022-08-24T06:46:07.565Z,44.52
2022-08-24T06:47:12.066Z,44.95
2022-08-24T06:48:14.916Z,46.10
2022-08-24T06:49:17.905Z,44.03
2022-08-24T06:50:21.093Z,44.50
2022-08-24T06:51:25.263Z,44.43
2022-08-24T06:52:28.493Z,45.49
2022-08-24T06:53:31.659Z,45.00
2022-08-24T06:54:34.084Z,46.04
2022-08-24T06:55:47.866Z,45.24
2022-08-24T06:56:50.197Z,45.54
2022-08-24T06:57:52.881Z,45.30
2022-08-24T06:58:55.319Z,44.75
2022-08-24T06:59:57.918Z,45.46
2022-08-24T07:01:21.763Z,45.46
2022-08-24T07:02:24.182Z,45.76
2022-08-24T07:03:28.064Z,44.16
2022-08-24T07:04:32.095Z,44.21
2022-08-24T07:07:04.451Z,43.90
2022-08-24T07:08:07.914Z,44.74
2022-08-24T07:09:11.780Z,44.74
2022-08-24T07:10:15.016Z,44.79
2022-08-24T07:11:18.478Z,43.83
2022-08-24T07:12:21.136Z,43.45
2022-08-24T07:13:23.598Z,42.29
2022-08-24T07:14:25.869Z,42.89
2022-08-24T07:15:28.318Z,42.88
2022-08-24T07:16:32.949Z,43.18
2022-08-24T07:17:36.989Z,42.46
2022-08-24T07:18:41.197Z,42.84
2022-08-24T07:19:43.299Z,42.37
2022-08-24T07:20:48.959Z,42.42
2022-08-24T07:21:58.148Z,42.26
2022-08-24T07:23:03.405Z,41.88
2022-08-24T07:24:06.235Z,42.21
2022-08-24T07:25:11.869Z,43.04
2022-08-24T07:26:22.333Z,42.90
2022-08-24T07:27:26.651Z,43.01
2022-08-24T07:28:31.768Z,42.75
2022-08-24T07:29:48.774Z,43.76
2022-08-24T07:30:42.622Z,43.43
2022-08-24T07:31:48.400Z,43.32
2022-08-24T07:32:58.568Z,42.05
2022-08-24T07:34:01.617Z,41.51
2022-08-24T07:35:04.695Z,41.63
2022-08-24T07:36:07.128Z,41.65
2022-08-24T07:37:11.931Z,41.71
2022-08-24T07:38:16.610Z,42.33
2022-08-24T07:39:19.383Z,41.76
2022-08-24T07:40:24.678Z,40.90
2022-08-24T07:42:02.611Z,41.30
2022-08-24T07:42:33.071Z,41.48
2022-08-24T07:43:36.723Z,41.38
2022-08-24T07:44:41.422Z,40.86
2022-08-24T07:45:45.268Z,40.93
2022-08-24T07:46:48.458Z,41.03
2022-08-24T07:47:55.473Z,40.54
2022-08-24T07:49:36.905Z,40.66
2022-08-24T07:50:21.240Z,40.91
2022-08-24T07:51:24.064Z,40.27
2022-08-24T07:52:26.224Z,40.64
2022-08-24T07:53:37.903Z,41.14
2022-08-24T07:54:32.590Z,40.35
2022-08-24T07:55:36.079Z,40.90
2022-08-24T07:56:41.477Z,40.70
2022-08-24T07:57:45.405Z,40.94
2022-08-24T07:58:48.063Z,41.33
2022-08-24T07:59:50.645Z,40.44
2022-08-24T08:00:53.198Z,40.66
2022-08-24T08:01:55.658Z,40.98
2022-08-24T08:02:58.061Z,40.85
2022-08-24T08:04:00.550Z,40.91
2022-08-24T08:05:03.895Z,41.73
2022-08-24T08:06:12.530Z,41.50
2022-08-24T08:07:13.120Z,41.24
2022-08-24T08:08:15.499Z,41.39
2022-08-24T08:09:19.063Z,40.48
2022-08-24T08:10:23.324Z,39.30
2022-08-24T08:11:26.651Z,40.48
2022-08-24T08:12:28.903Z,40.28
2022-08-24T08:13:32.445Z,40.30
2022-08-24T08:14:35.001Z,38.88
2022-08-24T08:15:38.291Z,39.89
2022-08-24T08:16:42.803Z,39.55
2022-08-24T08:17:45.010Z,38.81
2022-08-24T08:18:52.366Z,40.63
2022-08-24T08:19:51.794Z,39.45
2022-08-24T08:20:56.086Z,39.77
2022-08-24T08:21:58.602Z,38.44
2022-08-24T08:23:00.898Z,38.96
2022-08-24T08:24:21.160Z,38.51
2022-08-24T08:25:25.842Z,38.92
2022-08-24T08:26:28.844Z,37.96
2022-08-24T08:27:38.791Z,39.34
2022-08-24T08:28:41.440Z,38.60
2022-08-24T08:29:44.073Z,38.37
2022-08-24T08:30:49.163Z,37.76
2022-08-24T08:31:52.847Z,38.88
2022-08-24T08:32:55.917Z,38.88
2022-08-24T08:33:59.453Z,39.11
2022-08-24T08:35:02.478Z,37.91
2022-08-24T08:36:10.079Z,38.90
2022-08-24T08:37:15.372Z,38.45
2022-08-24T08:38:18.736Z,38.98
2022-08-24T08:39:22.620Z,38.37
2022-08-24T08:41:04.848Z,38.40
2022-08-24T08:42:21.523Z,38.28
2022-08-24T08:43:34.417Z,37.00
2022-08-24T08:44:43.893Z,38.39
2022-08-24T08:45:59.461Z,38.58
2022-08-24T08:47:26.574Z,38.44
2022-08-24T08:48:52.311Z,38.11
2022-08-24T08:50:07.261Z,37.99
2022-08-24T08:51:34.362Z,37.49
2022-08-24T08:52:46.801Z,37.27
2022-08-24T08:53:55.654Z,35.99
2022-08-24T08:55:02.195Z,36.18
2022-08-24T08:56:20.416Z,36.19
2022-08-24T08:57:45.609Z,37.14
2022-08-24T08:59:06.735Z,36.52
2022-08-24T09:00:18.569Z,36.69
2022-08-24T09:01:32.527Z,35.17
2022-08-24T09:03:07.068Z,36.20
2022-08-24T09:04:21.390Z,36.70
2022-08-24T09:05:56.828Z,35.65
2022-08-24T09:07:33.378Z,36.49
2022-08-24T09:08:56.749Z,34.87
2022-08-24T09:10:29.769Z,35.70
2022-08-24T09:12:11.384Z,35.96
2022-08-24T09:13:39.014Z,33.92
2022-08-24T09:14:49.352Z,34.79
2022-08-24T09:16:10.870Z,33.66
2022-08-24T09:17:43.153Z,33.01
2022-08-24T09:19:02.049Z,33.71
2022-08-24T09:20:29.472Z,32.92
2022-08-24T09:21:52.325Z,33.20
2022-08-24T09:23:05.956Z,33.21
2022-08-24T09:24:17.098Z,33.25
2022-08-24T09:25:29.051Z,33.40
2022-08-24T09:26:39.958Z,33.21
2022-08-24T09:28:16.482Z,33.30
2022-08-24T09:29:38.137Z,32.74
2022-08-24T09:30:58.602Z,32.56
2022-08-24T09:32:26.090Z,32.61
2022-08-24T09:33:40.829Z,32.56
2022-08-24T09:34:53.538Z,32.61
2022-08-24T09:36:15.502Z,32.75
2022-08-24T09:37:33.151Z,32.31
2022-08-24T09:38:57.155Z,32.10
2022-08-24T09:40:15.014Z,31.62
2022-08-24T09:41:56.658Z,32.40
2022-08-24T09:43:28.712Z,32.49
2022-08-24T09:44:41.733Z,32.41
2022-08-24T09:45:57.799Z,32.18
2022-08-24T09:47:15.955Z,32.39
2022-08-24T09:48:28.462Z,32.06
2022-08-24T09:49:54.109Z,31.69
2022-08-24T09:51:03.182Z,32.57
2022-08-24T09:52:10.056Z,33.09
2022-08-24T09:53:27.964Z,32.57
2022-08-24T09:54:50.731Z,32.70
2022-08-24T09:56:12.231Z,31.81
2022-08-24T09:57:30.721Z,31.92
2022-08-24T09:59:06.420Z,35.02
2022-08-24T10:00:13.897Z,32.51
2022-08-24T10:01:41.282Z,33.04
2022-08-24T10:03:08.068Z,32.71
2022-08-24T10:04:20.359Z,33.87
2022-08-24T10:05:43.248Z,33.77
2022-08-24T10:07:25.643Z,31.54
2022-08-24T10:08:44.142Z,32.08
2022-08-24T10:09:53.159Z,34.05
2022-08-24T10:11:26.655Z,33.16
2022-08-24T10:12:56.522Z,32.51
2022-08-24T10:14:02.592Z,32.78
2022-08-24T10:15:29.638Z,31.18
2022-08-24T10:16:41.732Z,32.61
2022-08-24T10:18:15.365Z,33.13
2022-08-24T10:19:27.742Z,31.28
2022-08-24T10:20:59.244Z,32.82
2022-08-24T10:22:09.065Z,33.97
2022-08-24T10:23:42.098Z,33.85
2022-08-24T10:25:08.821Z,34.49
2022-08-24T10:26:24.946Z,32.24
2022-08-24T10:27:39.674Z,32.03
2022-08-24T10:29:09.703Z,32.44
2022-08-24T10:30:23.619Z,32.30
2022-08-24T10:31:40.036Z,30.61
2022-08-24T10:32:45.858Z,32.33
2022-08-24T10:34:11.465Z,31.62
2022-08-24T10:35:29.389Z,32.93
2022-08-24T10:36:50.679Z,30.37
2022-08-24T10:38:19.405Z,30.82
2022-08-24T10:39:41.370Z,30.44
2022-08-24T10:40:52.851Z,30.75
2022-08-24T10:42:15.328Z,31.19
2022-08-24T10:43:56.993Z,31.37
2022-08-24T10:45:05.479Z,31.89
2022-08-24T10:46:28.950Z,30.29
2022-08-24T10:47:34.831Z,30.39
2022-08-24T10:49:10.320Z,32.43
2022-08-24T10:50:31.119Z,31.79
2022-08-24T10:52:06.232Z,30.29
2022-08-24T10:53:24.821Z,30.43
2022-08-24T10:54:28.846Z,32.18
2022-08-24T10:55:33.968Z,29.75
2022-08-24T10:56:43.575Z,31.18
2022-08-24T10:58:01.553Z,31.98
2022-08-24T10:59:25.041Z,32.34
2022-08-24T11:00:30.019Z,30.33
2022-08-24T11:01:36.771Z,31.49
2022-08-24T11:02:41.747Z,31.61
2022-08-24T11:03:59.950Z,31.27
2022-08-24T11:05:11.781Z,29.76
2022-08-24T11:06:18.578Z,30.15
2022-08-24T11:07:21.311Z,30.96
2022-08-24T11:08:29.499Z,29.66
2022-08-24T11:09:50.491Z,30.98
2022-08-24T11:11:12.050Z,30.58
2022-08-24T11:12:29.123Z,29.59
2022-08-24T11:13:31.887Z,30.72
2022-08-24T11:14:37.519Z,30.62
2022-08-24T11:15:50.327Z,29.89
2022-08-24T11:16:57.670Z,30.66
2022-08-24T11:18:01.404Z,29.46
2022-08-24T11:19:09.910Z,29.39
2022-08-24T11:20:31.844Z,28.29
2022-08-24T11:21:38.261Z,28.59
2022-08-24T11:23:05.203Z,27.96
2022-08-24T11:24:13.942Z,30.36
2022-08-24T11:25:23.672Z,29.92
2022-08-24T11:26:26.555Z,29.45
2022-08-24T11:27:35.677Z,28.23
2022-08-24T11:29:03.600Z,29.61
2022-08-24T11:30:13.993Z,28.87
2022-08-24T11:31:36.036Z,30.27
2022-08-24T11:32:57.110Z,29.41
2022-08-24T11:34:05.414Z,28.25
2022-08-24T11:35:30.091Z,27.75
2022-08-24T11:36:35.822Z,27.39
2022-08-24T11:37:39.311Z,26.78
2022-08-24T11:38:45.843Z,26.76
2022-08-24T11:39:45.546Z,28.58
2022-08-24T11:41:00.542Z,29.57
2022-08-24T11:42:10.478Z,27.68
2022-08-24T11:43:37.315Z,28.80
2022-08-24T11:44:52.951Z,27.34
2022-08-24T11:46:04.878Z,28.15
2022-08-24T11:47:36.679Z,28.85
2022-08-24T11:49:05.598Z,28.11
2022-08-24T11:50:26.756Z,27.97
2022-08-24T11:51:41.093Z,27.26
2022-08-24T11:52:50.915Z,28.16
2022-08-24T11:54:03.004Z,26.26
2022-08-24T11:55:12.201Z,27.93
2022-08-24T11:56:25.506Z,27.54
2022-08-24T11:57:48.237Z,27.92
2022-08-24T11:58:57.687Z,28.28
2022-08-24T12:00:03.526Z,27.73
2022-08-24T12:01:13.982Z,27.81
2022-08-24T12:02:29.825Z,28.69
2022-08-24T12:03:38.676Z,29.28
2022-08-24T12:04:56.467Z,28.94
2022-08-24T12:06:12.150Z,27.91
2022-08-24T12:07:24.595Z,27.31
2022-08-24T12:08:35.968Z,26.76
2022-08-24T12:10:03.617Z,27.81
2022-08-24T12:11:21.600Z,28.91
2022-08-24T12:12:30.365Z,27.86
2022-08-24T12:13:38.677Z,26.22
2022-08-24T12:14:51.508Z,27.62
2022-08-24T12:16:15.097Z,27.53
2022-08-24T12:17:40.140Z,26.01
2022-08-24T12:18:50.284Z,26.12
2022-08-24T12:20:01.986Z,25.62
2022-08-24T12:21:08.815Z,27.93
2022-08-24T12:22:14.473Z,26.66
2022-08-24T12:24:59.442Z,26.74
2022-08-24T12:26:08.603Z,26.39
2022-08-24T12:27:34.499Z,28.00
2022-08-24T12:28:41.645Z,27.52
2022-08-24T12:30:05.272Z,27.37
2022-08-24T12:32:26.340Z,27.21
2022-08-24T12:33:37.542Z,25.92
2022-08-24T12:34:42.605Z,26.58
2022-08-24T12:35:51.823Z,27.16
2022-08-24T12:37:04.826Z,25.33
2022-08-24T12:38:31.677Z,27.04
2022-08-24T12:39:43.975Z,26.85
2022-08-24T12:40:51.560Z,25.60
2022-08-24T12:42:01.392Z,25.30
2022-08-24T12:43:13.690Z,27.59
2022-08-24T12:44:17.898Z,26.56
2022-08-24T12:45:23.731Z,26.84
2022-08-24T12:46:27.910Z,26.59
2022-08-24T12:47:38.323Z,25.42
2022-08-24T12:48:46.682Z,26.40
2022-08-24T12:49:53.004Z,26.20
2022-08-24T12:52:29.812Z,25.88
2022-08-24T12:54:10.035Z,25.17
2022-08-24T12:55:24.059Z,24.75
2022-08-24T12:56:36.244Z,25.03
2022-08-24T12:57:55.412Z,25.81
2022-08-24T12:59:22.945Z,24.78
2022-08-24T13:00:31.697Z,25.96
2022-08-24T13:01:37.938Z,25.05
2022-08-24T13:02:44.374Z,24.62
2022-08-24T13:03:50.703Z,25.23
2022-08-24T13:04:57.860Z,25.61
2022-08-24T13:06:06.871Z,25.61
2022-08-24T13:07:22.355Z,26.35
2022-08-24T13:08:40.514Z,24.54
2022-08-24T13:09:46.836Z,24.44
2022-08-24T13:10:56.135Z,24.20
2022-08-24T13:12:01.825Z,25.69
2022-08-24T13:13:09.092Z,25.40
2022-08-24T13:14:19.159Z,24.95
2022-08-24T13:15:32.444Z,25.58
2022-08-24T13:16:56.706Z,25.37
2022-08-24T13:18:10.525Z,25.26
2022-08-24T13:19:29.801Z,25.45
2022-08-24T13:20:46.189Z,24.41
2022-08-24T13:23:14.028Z,24.49
2022-08-24T13:24:29.435Z,23.95
2022-08-24T13:25:50.017Z,24.43
2022-08-24T13:26:55.708Z,24.74
2022-08-24T13:28:06.067Z,25.07
2022-08-24T13:29:11.176Z,24.55
2022-08-24T13:31:35.741Z,24.26
2022-08-24T13:32:41.775Z,23.15
2022-08-24T13:33:53.657Z,23.88
2022-08-24T13:35:00.497Z,24.40
2022-08-24T13:36:09.781Z,23.34
2022-08-24T13:37:23.863Z,23.14
2022-08-24T13:38:35.835Z,24.09
2022-08-24T13:40:18.291Z,23.08
2022-08-24T13:41:41.871Z,21.44
2022-08-24T13:43:04.509Z,23.45
2022-08-24T13:44:30.486Z,23.40
2022-08-24T13:45:43.491Z,21.35
2022-08-24T13:47:12.396Z,22.91
2022-08-24T13:48:21.349Z,24.00
2022-08-24T13:49:39.237Z,22.62
2022-08-24T13:50:47.984Z,22.67
2022-08-24T13:52:14.615Z,22.02
2022-08-24T13:53:39.400Z,21.69
2022-08-24T13:55:01.584Z,21.83
2022-08-24T13:56:33.443Z,24.44
2022-08-24T13:57:45.521Z,22.84
2022-08-24T13:59:02.224Z,23.43
2022-08-24T14:00:17.301Z,23.91
2022-08-24T14:02:00.351Z,23.28
2022-08-24T14:03:16.880Z,24.31
2022-08-24T14:06:22.862Z,24.30
2022-08-24T14:07:31.887Z,25.04
2022-08-24T14:08:49.297Z,23.55
2022-08-24T14:10:27.792Z,24.76
2022-08-24T14:11:59.223Z,23.61
2022-08-24T14:13:19.644Z,23.10
2022-08-24T14:14:42.373Z,23.44
2022-08-24T14:16:04.555Z,22.73
2022-08-24T14:17:19.710Z,22.37
2022-08-24T14:18:28.267Z,23.46
2022-08-24T14:20:00.020Z,23.32
2022-08-24T14:21:11.773Z,21.46
2022-08-24T14:23:46.507Z,22.78
2022-08-24T14:24:56.370Z,23.61
2022-08-24T14:26:35.898Z,22.43
2022-08-24T14:27:45.211Z,22.01
2022-08-24T14:28:49.621Z,21.80
2022-08-24T14:29:52.507Z,21.44
2022-08-24T14:31:18.100Z,21.70
2022-08-24T14:32:27.947Z,22.62
2022-08-24T14:33:37.476Z,21.72
2022-08-24T14:34:43.423Z,22.68
2022-08-24T14:36:14.674Z,22.07
2022-08-24T14:37:23.368Z,21.05
2022-08-24T14:38:38.843Z,21.48
2022-08-24T14:41:32.713Z,21.30
2022-08-24T14:42:46.678Z,22.67
2022-08-24T14:44:13.963Z,22.67
2022-08-24T14:45:28.253Z,21.39
2022-08-24T14:46:49.799Z,21.27
2022-08-24T14:48:09.326Z,22.99
2022-08-24T14:49:31.785Z,22.07
2022-08-24T14:50:43.067Z,22.79
2022-08-24T14:52:05.043Z,22.07
2022-08-24T14:53:27.686Z,22.91
2022-08-24T14:54:36.700Z,22.68
2022-08-24T14:55:48.685Z,23.30
2022-08-24T14:57:08.872Z,21.10
2022-08-24T14:58:28.950Z,22.32
2022-08-24T14:59:49.658Z,22.67